Time;durP1;ratioP1;P1;durP2;ratioP2;P2;SDS_P1;SDS_P2;PMS_P1;PMS_P2;Temp;Humidity;BMP_temperature;BMP_pressure;BME280_temperature;BME280_humidity;BME280_pressure;Samples;Min_cycle;Max_cycle;Signal;HPM_P1;HPM_P2
2021/06/07 00:00:52;;;;;;;4.57;1.10;;;18.30;77.00;;;;;;6152412;23;20060;-85
2021/06/07 00:03:18;;;;;;;1.75;0.50;;;18.30;77.10;;;;;;6154799;23;20009;-84
2021/06/07 00:05:44;;;;;;;0.73;0.40;;;18.30;77.10;;;;;;6154641;23;20380;-84
2021/06/07 00:08:10;;;;;;;2.55;0.55;;;18.30;77.00;;;;;;6152910;23;20013;-84
2021/06/07 00:10:36;;;;;;;2.45;0.63;;;18.30;77.00;;;;;;6152393;23;20070;-84
2021/06/07 00:13:03;;;;;;;3.58;0.80;;;18.20;77.00;;;;;;6151951;23;20013;-84
2021/06/07 00:15:33;;;;;;;0.38;0.38;;;18.30;77.00;;;;;;6151949;23;20440;-84
2021/06/07 00:17:59;;;;;;;0.82;0.40;;;18.20;77.10;;;;;;6152656;23;20089;-84
2021/06/07 00:20:40;;;;;;;4.60;0.50;;;18.20;77.10;;;;;;6151049;23;20009;-84
2021/06/07 00:23:09;;;;;;;3.47;0.57;;;18.20;77.20;;;;;;6153251;23;20010;-84
2021/06/07 00:25:35;;;;;;;5.25;0.65;;;18.20;77.20;;;;;;6151489;23;20009;-84
2021/06/07 00:28:01;;;;;;;4.20;0.60;;;18.30;77.10;;;;;;6151214;23;20014;-84
2021/06/07 00:30:27;;;;;;;0.50;0.40;;;18.20;77.10;;;;;;6153369;23;20775;-84
2021/06/07 00:32:52;;;;;;;4.07;0.50;;;18.20;77.20;;;;;;6154176;23;20004;-84
2021/06/07 00:35:23;;;;;;;4.82;0.60;;;18.20;77.40;;;;;;6152806;23;20001;-84
2021/06/07 00:37:49;;;;;;;3.03;0.70;;;18.20;77.40;;;;;;6155916;23;20427;-84
2021/06/07 00:40:16;;;;;;;4.88;0.65;;;18.20;77.50;;;;;;6153606;23;20012;-84
2021/06/07 00:42:44;;;;;;;3.85;0.70;;;18.10;77.60;;;;;;6153095;23;20010;-84
2021/06/07 00:45:13;;;;;;;5.07;0.65;;;18.20;77.70;;;;;;6153521;23;20351;-84
2021/06/07 00:47:39;;;;;;;2.28;0.65;;;18.20;77.60;;;;;;6152933;23;20128;-84
2021/06/07 00:50:10;;;;;;;1.23;0.70;;;18.20;77.60;;;;;;6152924;23;20005;-84
2021/06/07 00:52:36;;;;;;;1.77;0.60;;;18.20;77.40;;;;;;6153442;23;20001;-84
2021/06/07 00:55:04;;;;;;;4.82;0.70;;;18.20;77.40;;;;;;6155015;23;20008;-84
2021/06/07 00:57:30;;;;;;;1.98;0.52;;;18.10;77.30;;;;;;6153494;23;20347;-84
2021/06/07 00:59:55;;;;;;;2.13;0.60;;;18.20;77.30;;;;;;6153865;23;20221;-84
2021/06/07 01:02:21;;;;;;;6.35;0.80;;;18.10;77.20;;;;;;6153245;23;20013;-84
2021/06/07 01:04:47;;;;;;;4.15;0.70;;;18.10;77.40;;;;;;6153478;23;20485;-85
2021/06/07 01:07:13;;;;;;;12.23;2.00;;;18.10;77.40;;;;;;6153484;23;20005;-84
2021/06/07 01:09:38;;;;;;;1.65;0.50;;;18.10;77.50;;;;;;6153695;23;20084;-85
2021/06/07 01:12:05;;;;;;;2.70;0.60;;;18.10;77.70;;;;;;6153718;23;20738;-84
2021/06/07 01:14:30;;;;;;;3.05;0.70;;;18.10;77.80;;;;;;6153875;23;20084;-85
2021/06/07 01:16:56;;;;;;;1.67;1.17;;;18.00;77.80;;;;;;6154138;23;20036;-85
2021/06/07 01:19:22;;;;;;;2.60;1.67;;;18.10;77.80;;;;;;6153320;23;20017;-84
2021/06/07 01:21:49;;;;;;;3.42;0.63;;;18.00;77.80;;;;;;6153323;23;20060;-85
2021/06/07 01:24:15;;;;;;;1.38;0.80;;;18.00;77.80;;;;;;6153058;23;20065;-84
2021/06/07 01:26:41;;;;;;;3.03;0.63;;;18.00;77.90;;;;;;6152158;23;20297;-85
2021/06/07 01:29:06;;;;;;;1.30;0.70;;;18.00;77.90;;;;;;6153526;23;20013;-85
2021/06/07 01:31:33;;;;;;;3.72;0.90;;;18.00;77.80;;;;;;6152962;23;20009;-84
2021/06/07 01:33:59;;;;;;;2.83;0.60;;;18.00;77.80;;;;;;6153579;23;20001;-85
2021/06/07 01:36:25;;;;;;;2.42;0.95;;;18.00;77.80;;;;;;6155008;23;20001;-84
2021/06/07 01:38:51;;;;;;;3.97;1.00;;;17.90;77.90;;;;;;6152749;23;20013;-85
2021/06/07 01:41:18;;;;;;;2.38;1.05;;;17.90;78.00;;;;;;6154683;23;20056;-84
2021/06/07 01:43:44;;;;;;;3.00;1.00;;;17.90;78.00;;;;;;6152044;23;20009;-85
2021/06/07 01:46:10;;;;;;;3.65;1.20;;;17.90;78.10;;;;;;6153036;23;20006;-85
2021/06/07 01:48:36;;;;;;;6.28;1.30;;;17.90;78.20;;;;;;6152949;23;20020;-84
2021/06/07 01:51:06;;;;;;;2.17;1.08;;;18.00;78.30;;;;;;6153364;23;20425;-85
2021/06/07 01:53:32;;;;;;;1.45;1.25;;;18.00;78.30;;;;;;6153033;23;20002;-85
2021/06/07 01:56:01;;;;;;;3.47;1.45;;;18.00;78.40;;;;;;6153143;23;20034;-85
2021/06/07 01:58:27;;;;;;;3.10;1.30;;;18.00;78.40;;;;;;6152673;23;20010;-84
2021/06/07 02:00:57;;;;;;;1.50;1.40;;;18.00;78.50;;;;;;6154122;23;20007;-84
2021/06/07 02:03:24;;;;;;;8.45;1.80;;;18.00;78.50;;;;;;6153797;23;20036;-84
2021/06/07 02:05:57;;;;;;;3.83;1.60;;;18.00;78.50;;;;;;6152871;23;20046;-84
2021/06/07 02:08:23;;;;;;;24.83;14.65;;;18.00;78.50;;;;;;6153180;23;20002;-84
2021/06/07 02:10:55;;;;;;;8.93;2.75;;;18.00;78.30;;;;;;6153336;23;20029;-84
2021/06/07 02:13:22;;;;;;;2.55;2.10;;;18.10;78.40;;;;;;6154283;23;20005;-84
2021/06/07 02:16:00;;;;;;;2.70;2.42;;;18.10;78.30;;;;;;6154901;23;20002;-84
2021/06/07 02:18:27;;;;;;;3.30;2.58;;;18.10;78.50;;;;;;6153204;23;20006;-84
2021/06/07 02:20:52;;;;;;;5.35;3.45;;;18.10;79.00;;;;;;6152555;23;20432;-84
2021/06/07 02:23:18;;;;;;;3.92;2.55;;;18.00;78.50;;;;;;6152876;23;20013;-84
2021/06/07 02:25:44;;;;;;;3.08;1.63;;;18.00;78.60;;;;;;6152708;23;20021;-84
2021/06/07 02:28:16;;;;;;;2.05;1.40;;;18.00;78.60;;;;;;6151904;23;20470;-84
2021/06/07 02:30:42;;;;;;;3.47;1.90;;;18.00;78.60;;;;;;6152489;23;20008;-84
2021/06/07 02:33:08;;;;;;;2.95;1.60;;;18.00;78.60;;;;;;6154323;23;20032;-84
2021/06/07 02:35:34;;;;;;;3.42;1.73;;;18.00;78.50;;;;;;6152393;23;20009;-84
2021/06/07 02:38:00;;;;;;;3.90;1.50;;;18.00;78.50;;;;;;6152971;23;20005;-85
2021/06/07 02:40:29;;;;;;;7.22;1.73;;;18.00;78.50;;;;;;6152604;23;20014;-84
2021/06/07 02:42:55;;;;;;;2.33;1.50;;;18.00;78.50;;;;;;6152317;23;20002;-84
2021/06/07 02:45:22;;;;;;;4.30;1.42;;;18.00;78.50;;;;;;6152050;23;20006;-84
2021/06/07 02:47:51;;;;;;;2.80;1.60;;;18.00;78.70;;;;;;6152755;23;20005;-84
2021/06/07 02:50:23;;;;;;;3.53;0.95;;;17.90;78.80;;;;;;6152517;23;20012;-85
2021/06/07 02:52:49;;;;;;;0.52;0.45;;;18.00;78.80;;;;;;6152584;23;20002;-85
2021/06/07 02:55:22;;;;;;;1.10;0.85;;;17.90;78.50;;;;;;6154135;23;20080;-85
2021/06/07 02:57:49;;;;;;;;;;;17.90;78.60;;;;;;6153198;23;20025;-84
2021/06/07 03:00:20;;;;;;;1.40;0.60;;;17.90;78.50;;;;;;6152316;23;19905;-84
2021/06/07 03:02:46;;;;;;;0.60;0.60;;;17.80;78.50;;;;;;6151876;23;20075;-85
2021/06/07 03:05:12;;;;;;;7.03;0.80;;;17.80;78.60;;;;;;6152036;23;20402;-85
2021/06/07 03:07:38;;;;;;;3.00;0.55;;;17.80;78.80;;;;;;6152929;23;20005;-85
2021/06/07 03:10:08;;;;;;;1.70;0.63;;;17.80;78.90;;;;;;6152340;23;20057;-85
2021/06/07 03:12:36;;;;;;;1.35;0.68;;;17.80;78.80;;;;;;6151760;23;20006;-85
2021/06/07 03:15:06;;;;;;;1.33;0.70;;;17.80;78.60;;;;;;6152444;23;20005;-85
2021/06/07 03:17:32;;;;;;;0.65;0.55;;;17.80;78.70;;;;;;6152003;23;20014;-85
2021/06/07 03:19:58;;;;;;;1.92;0.80;;;17.80;78.80;;;;;;6153904;23;20008;-85
2021/06/07 03:22:24;;;;;;;2.10;1.10;;;17.80;78.90;;;;;;6152153;23;20013;-85
2021/06/07 03:24:52;;;;;;;2.60;1.70;;;17.90;79.00;;;;;;6152892;23;20009;-84
2021/06/07 03:27:18;;;;;;;4.35;2.20;;;17.90;78.90;;;;;;6151648;23;20439;-85
2021/06/07 03:29:46;;;;;;;4.60;2.85;;;17.80;78.90;;;;;;6151865;23;20033;-84
2021/06/07 03:32:12;;;;;;;2.97;1.63;;;17.80;79.10;;;;;;6151591;23;20083;-84
2021/06/07 03:34:39;;;;;;;4.15;0.95;;;17.80;79.20;;;;;;6151979;23;20017;-84
2021/06/07 03:37:05;;;;;;;2.30;0.80;;;17.90;79.20;;;;;;6152277;23;20016;-84
2021/06/07 03:39:32;;;;;;;2.15;0.70;;;17.90;78.90;;;;;;6153630;23;20008;-84
2021/06/07 03:41:58;;;;;;;2.13;0.95;;;17.90;78.90;;;;;;6152386;23;20009;-84
2021/06/07 03:44:23;;;;;;;5.57;0.60;;;17.90;78.70;;;;;;6151245;23;20403;-84
2021/06/07 03:46:50;;;;;;;12.15;1.15;;;17.80;78.80;;;;;;6152255;23;20006;-84
2021/06/07 03:49:15;;;;;;;3.42;0.70;;;17.80;78.80;;;;;;6154557;23;19998;-84
2021/06/07 03:51:41;;;;;;;1.05;0.93;;;17.80;78.70;;;;;;6151760;23;20017;-84
2021/06/07 03:54:07;;;;;;;2.17;0.90;;;17.80;78.50;;;;;;6151025;23;20010;-84
2021/06/07 03:56:33;;;;;;;3.45;0.75;;;17.80;78.60;;;;;;6152094;23;20094;-84
2021/06/07 03:58:59;;;;;;;8.25;0.80;;;17.80;78.60;;;;;;6151539;23;20412;-84
2021/06/07 04:01:25;;;;;;;1.10;1.00;;;17.80;78.70;;;;;;6152580;23;20012;-84
2021/06/07 04:03:50;;;;;;;3.80;0.88;;;17.80;78.80;;;;;;6152820;23;20081;-84
2021/06/07 04:06:17;;;;;;;2.40;0.70;;;17.80;78.80;;;;;;6151836;23;20348;-84
2021/06/07 04:08:43;;;;;;;2.58;0.90;;;17.80;78.90;;;;;;6151619;23;20001;-84
2021/06/07 04:11:10;;;;;;;3.03;0.88;;;17.80;79.00;;;;;;6152079;23;20016;-85
2021/06/07 04:13:37;;;;;;;2.50;0.80;;;17.80;79.10;;;;;;6151281;23;20017;-85
2021/06/07 04:16:03;;;;;;;2.63;1.10;;;17.80;79.30;;;;;;6152122;23;20139;-84
2021/06/07 04:18:29;;;;;;;5.15;1.10;;;17.80;79.30;;;;;;6151690;23;20014;-84
2021/06/07 04:20:54;;;;;;;1.98;1.35;;;17.80;79.30;;;;;;6151679;23;20020;-85
2021/06/07 04:23:20;;;;;;;5.63;1.00;;;17.80;79.30;;;;;;6151325;23;20010;-85
2021/06/07 04:25:46;;;;;;;4.28;1.23;;;17.80;79.20;;;;;;6153280;23;20010;-84
2021/06/07 04:28:12;;;;;;;3.92;1.10;;;17.80;79.30;;;;;;6149546;23;20359;-85
2021/06/07 04:30:38;;;;;;;2.05;1.23;;;17.90;79.40;;;;;;6151105;23;20081;-84
2021/06/07 04:33:04;;;;;;;4.07;1.27;;;17.90;79.40;;;;;;6150491;23;20060;-84
2021/06/07 04:35:30;;;;;;;4.28;1.48;;;17.90;79.40;;;;;;6150836;23;20006;-85
2021/06/07 04:37:56;;;;;;;5.35;1.60;;;17.90;79.50;;;;;;6150576;23;20009;-84
2021/06/07 04:40:26;;;;;;;1.75;1.30;;;17.90;79.50;;;;;;6149847;23;20009;-84
2021/06/07 04:42:52;;;;;;;6.40;2.22;;;17.90;79.50;;;;;;6150901;23;20064;-85
2021/06/07 04:45:19;;;;;;;11.52;2.10;;;17.90;79.60;;;;;;6150399;23;20010;-85
2021/06/07 04:47:46;;;;;;;3.03;2.00;;;18.00;79.70;;;;;;6150538;23;20043;-85
2021/06/07 04:50:14;;;;;;;2.47;2.00;;;18.00;79.80;;;;;;6150424;23;20013;-85
2021/06/07 04:55:33;;;;;;;8.20;2.58;;;18.00;79.80;;;;;;6151396;23;20020;-84
2021/06/07 04:58:01;;;;;;;3.20;2.05;;;18.00;80.00;;;;;;6150227;23;20459;-85
2021/06/07 05:00:27;;;;;;;2.58;1.92;;;18.00;79.90;;;;;;6150361;23;20108;-84
2021/06/07 05:02:53;;;;;;;5.38;2.67;;;18.00;79.80;;;;;;6152144;23;20039;-85
2021/06/07 05:05:20;;;;;;;4.72;2.22;;;18.00;79.90;;;;;;6150817;23;20340;-84
2021/06/07 05:07:46;;;;;;;8.48;3.30;;;18.10;79.90;;;;;;6150431;23;20005;-84
2021/06/07 05:10:12;;;;;;;5.63;3.50;;;18.10;79.90;;;;;;6149942;23;20089;-84
2021/06/07 05:12:38;;;;;;;3.83;3.13;;;18.10;80.00;;;;;;6150862;23;20001;-85
2021/06/07 05:15:06;;;;;;;3.75;2.58;;;18.10;80.00;;;;;;6151803;23;20012;-85
2021/06/07 05:17:32;;;;;;;6.20;2.30;;;18.10;80.10;;;;;;6150213;23;20009;-85
2021/06/07 05:19:58;;;;;;;4.85;2.10;;;18.20;79.90;;;;;;6152130;23;19998;-85
2021/06/07 05:22:24;;;;;;;1.75;1.65;;;18.20;79.60;;;;;;6150264;23;20020;-84
2021/06/07 05:24:50;;;;;;;4.45;1.70;;;18.20;79.50;;;;;;6151848;23;20006;-84
2021/06/07 05:27:16;;;;;;;7.18;1.73;;;18.20;79.40;;;;;;6146365;23;135571;-84
2021/06/07 05:29:41;;;;;;;1.58;1.30;;;18.30;79.20;;;;;;6141674;23;20044;-84
2021/06/07 05:32:07;;;;;;;4.22;1.60;;;18.40;79.10;;;;;;6154667;23;20005;-85
2021/06/07 05:34:33;;;;;;;5.18;1.50;;;18.30;79.00;;;;;;6153900;23;20009;-84
2021/06/07 05:36:59;;;;;;;7.47;1.77;;;18.40;78.80;;;;;;6155071;23;20002;-84
2021/06/07 05:39:25;;;;;;;3.42;2.08;;;18.40;78.70;;;;;;6153851;23;20037;-84
2021/06/07 05:41:51;;;;;;;7.80;3.28;;;18.40;78.60;;;;;;6153004;23;20005;-84
2021/06/07 05:44:16;;;;;;;8.88;3.47;;;18.40;78.50;;;;;;6154430;23;20010;-85
2021/06/07 05:46:42;;;;;;;5.55;2.70;;;18.40;78.60;;;;;;6153188;23;20112;-85
2021/06/07 05:49:08;;;;;;;4.80;2.90;;;18.40;78.80;;;;;;6153013;23;20043;-84
2021/06/07 05:51:34;;;;;;;5.20;3.10;;;18.40;79.00;;;;;;6152920;23;20006;-84
2021/06/07 05:54:00;;;;;;;6.25;3.45;;;18.50;79.10;;;;;;6153764;23;20436;-84
2021/06/07 05:56:25;;;;;;;4.70;3.50;;;18.50;78.90;;;;;;6153103;23;20085;-84
2021/06/07 05:58:57;;;;;;;6.50;4.05;;;18.50;78.90;;;;;;6152615;23;20718;-84
2021/06/07 06:01:24;;;;;;;5.35;3.65;;;18.50;78.80;;;;;;6153937;23;20008;-84
2021/06/07 06:03:51;;;;;;;9.45;5.15;;;18.50;78.80;;;;;;6151418;23;20498;-83
2021/06/07 06:06:17;;;;;;;7.45;5.50;;;18.50;78.70;;;;;;6152883;23;20076;-84
2021/06/07 06:08:43;;;;;;;6.85;5.93;;;18.60;78.50;;;;;;6153111;23;20036;-84
2021/06/07 06:11:09;;;;;;;12.20;8.20;;;18.60;78.50;;;;;;6153793;23;20539;-85
2021/06/07 06:13:36;;;;;;;8.50;6.68;;;18.60;78.20;;;;;;6155170;23;20060;-85
2021/06/07 06:16:02;;;;;;;9.45;7.30;;;18.70;78.10;;;;;;6154175;23;20009;-85
2021/06/07 06:18:28;;;;;;;11.35;7.93;;;18.70;78.00;;;;;;6153815;23;20012;-85
2021/06/07 06:20:53;;;;;;;10.38;7.85;;;18.80;78.00;;;;;;6152771;23;20571;-85
2021/06/07 06:23:19;;;;;;;14.05;8.57;;;18.80;77.70;;;;;;6154845;23;20029;-84
2021/06/07 06:25:45;;;;;;;15.23;7.82;;;18.80;77.70;;;;;;6152798;23;20452;-85
2021/06/07 06:28:12;;;;;;;9.70;7.50;;;18.70;77.70;;;;;;6151723;23;20355;-84
2021/06/07 06:30:38;;;;;;;10.20;7.30;;;18.70;78.30;;;;;;6128880;23;20080;-85
2021/06/07 06:33:04;;;;;;;9.38;6.50;;;18.80;77.70;;;;;;6155082;23;19998;-85
2021/06/07 06:35:30;;;;;;;11.30;7.43;;;18.80;77.50;;;;;;6153464;23;20381;-85
2021/06/07 06:37:57;;;;;;;12.88;7.05;;;18.90;77.40;;;;;;6152913;23;20226;-85
2021/06/07 06:40:27;;;;;;;9.05;6.28;;;18.90;77.40;;;;;;6155954;23;20029;-85
2021/06/07 06:42:56;;;;;;;9.93;6.43;;;19.00;77.40;;;;;;6153152;23;20009;-85
2021/06/07 06:45:22;;;;;;;11.13;7.05;;;19.00;77.30;;;;;;6153101;23;20009;-85
2021/06/07 06:47:55;;;;;;;10.52;6.35;;;19.10;77.10;;;;;;6153093;23;20002;-85
2021/06/07 06:50:21;;;;;;;;;;;19.10;76.90;;;;;;6154167;23;20005;-85
2021/06/07 06:52:47;;;;;;;10.60;5.78;;;19.10;76.80;;;;;;6153993;23;19900;-85
2021/06/07 06:55:16;;;;;;;10.38;6.45;;;19.10;76.60;;;;;;6155064;23;20071;-85
2021/06/07 06:57:45;;;;;;;12.27;7.75;;;19.10;76.40;;;;;;6154822;23;20008;-85
2021/06/07 07:02:46;;;;;;;10.00;6.45;;;19.20;76.50;;;;;;6236749;22;20050;-85
2021/06/07 07:05:12;;;;;;;10.82;7.05;;;19.20;76.40;;;;;;6248340;22;20007;-85
2021/06/07 07:07:37;;;;;;;9.95;6.80;;;19.20;76.20;;;;;;6247977;22;20409;-85
2021/06/07 07:10:05;;;;;;;8.32;6.53;;;19.20;76.00;;;;;;6248211;22;20004;-85
2021/06/07 07:12:31;;;;;;;10.18;6.57;;;19.20;75.70;;;;;;6275318;22;20007;-85
2021/06/07 07:15:00;;;;;;;8.27;6.43;;;19.20;75.90;;;;;;6248990;22;20011;-85
2021/06/07 07:17:26;;;;;;;8.00;5.75;;;19.20;76.00;;;;;;6248010;22;20011;-85
2021/06/07 07:19:51;;;;;;;10.15;6.07;;;19.20;76.00;;;;;;6274045;22;20000;-84
2021/06/07 07:22:19;;;;;;;7.55;5.78;;;19.20;76.70;;;;;;6261396;22;20622;-88
2021/06/07 07:24:47;;;;;;;9.25;5.85;;;19.30;76.30;;;;;;6273961;22;20008;-87
2021/06/07 07:27:14;;;;;;;8.80;5.85;;;19.30;76.20;;;;;;6273453;22;20008;-87
2021/06/07 07:29:40;;;;;;;8.70;6.13;;;19.40;76.00;;;;;;6272426;22;20433;-87
2021/06/07 07:32:10;;;;;;;7.88;5.22;;;19.40;76.20;;;;;;6273958;22;20035;-83
2021/06/07 07:34:37;;;;;;;9.23;6.75;;;19.40;76.20;;;;;;6248145;22;20011;-82
2021/06/07 07:37:03;;;;;;;8.45;6.95;;;19.40;75.80;;;;;;6275171;22;20315;-82
2021/06/07 07:39:29;;;;;;;11.27;7.25;;;19.40;75.60;;;;;;6247550;22;20081;-81
2021/06/07 07:41:55;;;;;;;7.05;6.30;;;19.50;75.50;;;;;;6248081;22;20378;-82
2021/06/07 07:44:22;;;;;;;7.38;6.15;;;19.50;75.20;;;;;;6246673;22;20023;-82
2021/06/07 07:46:48;;;;;;;10.18;5.80;;;19.50;75.10;;;;;;6246910;22;20341;-82
2021/06/07 07:49:14;;;;;;;10.10;5.75;;;19.60;75.40;;;;;;6248100;22;20008;-82
2021/06/07 07:51:45;;;;;;;7.25;5.07;;;19.70;75.30;;;;;;6247948;22;20481;-82
2021/06/07 07:54:11;;;;;;;11.00;5.63;;;19.80;75.00;;;;;;6248059;22;20086;-82
2021/06/07 07:56:38;;;;;;;5.90;5.22;;;19.80;74.70;;;;;;6247255;22;20000;-82
2021/06/07 07:59:04;;;;;;;6.80;5.80;;;20.00;74.70;;;;;;6243958;22;20011;-82
2021/06/07 08:01:30;;;;;;;9.32;5.15;;;20.10;74.70;;;;;;6274163;22;20394;-82
2021/06/07 08:03:56;;;;;;;10.38;5.32;;;20.10;74.60;;;;;;6247303;22;20004;-82
2021/06/07 08:06:22;;;;;;;8.55;6.00;;;20.20;74.50;;;;;;6247210;22;20393;-82
2021/06/07 08:08:49;;;;;;;10.90;5.60;;;20.40;74.30;;;;;;6246951;22;20038;-82
2021/06/07 08:11:15;;;;;;;6.05;4.93;;;20.40;74.00;;;;;;6247877;22;20000;-82
2021/06/07 08:13:41;;;;;;;8.50;5.38;;;20.40;73.40;;;;;;6248010;22;20319;-82
2021/06/07 08:16:07;;;;;;;8.30;5.50;;;20.50;73.30;;;;;;6248044;22;20003;-82
2021/06/07 08:18:33;;;;;;;5.50;4.50;;;20.50;73.10;;;;;;6247289;22;20445;-83
2021/06/07 08:20:59;;;;;;;8.05;4.55;;;20.50;72.70;;;;;;6247380;22;20010;-82
2021/06/07 08:23:25;;;;;;;6.30;3.28;;;20.50;72.40;;;;;;6247064;22;20003;-82
2021/06/07 08:25:51;;;;;;;7.30;3.95;;;20.40;71.80;;;;;;6247051;22;20004;-82
2021/06/07 08:28:17;;;;;;;4.95;3.17;;;20.50;71.70;;;;;;6247211;22;20376;-82
2021/06/07 08:30:43;;;;;;;6.25;4.05;;;20.50;71.40;;;;;;6247832;22;19996;-81
2021/06/07 08:33:09;;;;;;;6.32;4.28;;;20.60;71.30;;;;;;6272195;22;19996;-82
2021/06/07 08:35:35;;;;;;;5.53;4.38;;;20.70;71.60;;;;;;6272578;22;20448;-82
2021/06/07 08:38:02;;;;;;;5.80;3.65;;;20.70;70.80;;;;;;6273188;22;20078;-81
2021/06/07 08:40:28;;;;;;;4.47;3.90;;;20.80;70.70;;;;;;6273349;22;20004;-82
2021/06/07 08:42:54;;;;;;;6.75;4.00;;;20.90;70.20;;;;;;6246800;22;20011;-81
2021/06/07 08:45:24;;;;;;;5.35;2.90;;;20.90;70.10;;;;;;6273473;22;20007;-83
2021/06/07 08:47:54;;;;;;;5.72;2.67;;;21.00;70.00;;;;;;6273244;22;19999;-82
2021/06/07 08:50:28;;;;;;;7.80;3.53;;;21.00;69.70;;;;;;6274272;22;20053;-82
2021/06/07 08:52:54;;;;;;;4.55;3.60;;;21.10;68.70;;;;;;6273327;22;20000;-82
2021/06/07 08:55:26;;;;;;;5.80;3.50;;;21.10;68.50;;;;;;6272806;22;20014;-82
2021/06/07 08:57:56;;;;;;;4.28;3.58;;;21.10;68.90;;;;;;6273622;22;20007;-82
2021/06/07 09:00:28;;;;;;;5.80;2.78;;;21.20;69.10;;;;;;6275314;22;20110;-81
2021/06/07 09:03:01;;;;;;;;;;;21.30;68.80;;;;;;6275695;22;20008;-82
2021/06/07 09:05:28;;;;;;;4.20;2.67;;;21.40;68.80;;;;;;6275702;22;19910;-82
2021/06/07 09:08:30;;;;;;;6.57;2.60;;;21.50;68.20;;;;;;6274785;22;20004;-82
2021/06/07 09:11:09;;;;;;;2.00;1.40;;;21.60;66.80;;;;;;6261572;22;20000;-82
2021/06/07 09:13:36;;;;;;;2.35;1.63;;;21.80;67.00;;;;;;6275027;22;20070;-82
2021/06/07 09:16:03;;;;;;;3.70;1.80;;;21.90;66.20;;;;;;6274907;22;20008;-82
2021/06/07 09:18:34;;;;;;;2.17;1.55;;;21.90;65.60;;;;;;6275355;22;20034;-82
2021/06/07 09:21:06;;;;;;;2.03;1.80;;;22.00;65.00;;;;;;6276824;22;20068;-82
2021/06/07 09:23:45;;;;;;;2.38;2.17;;;22.10;65.10;;;;;;6274881;22;20012;-82
2021/06/07 09:26:34;;;;;;;5.47;1.88;;;22.20;64.90;;;;;;6275243;22;20082;-83
2021/06/07 09:29:21;;;;;;;2.85;1.90;;;22.30;64.30;;;;;;6274875;22;20003;-82
2021/06/07 09:31:52;;;;;;;3.45;2.42;;;22.30;64.10;;;;;;6272900;22;20445;-82
2021/06/07 09:34:29;;;;;;;2.33;1.88;;;22.30;63.60;;;;;;6275002;22;20346;-83
2021/06/07 09:37:04;;;;;;;2.97;1.48;;;22.40;63.20;;;;;;6274955;22;20110;-82
2021/06/07 09:39:33;;;;;;;4.03;1.50;;;22.40;63.00;;;;;;6275279;22;20177;-82
2021/06/07 09:42:05;;;;;;;2.92;2.25;;;22.40;62.80;;;;;;6275127;22;20058;-82
2021/06/07 09:44:44;;;;;;;5.68;3.97;;;22.40;62.40;;;;;;6276446;22;20058;-82
2021/06/07 09:47:13;;;;;;;8.75;4.57;;;22.40;62.20;;;;;;6276552;22;20050;-83
2021/06/07 09:50:04;;;;;;;4.60;2.45;;;22.40;62.10;;;;;;6275185;22;20000;-82
2021/06/07 09:52:44;;;;;;;1.42;1.13;;;22.50;61.70;;;;;;6276614;22;19999;-82
2021/06/07 09:55:17;;;;;;;3.67;2.72;;;22.60;61.30;;;;;;6275317;22;20018;-83
2021/06/07 09:57:47;;;;;;;8.63;3.53;;;22.60;61.40;;;;;;6275101;22;20063;-82
2021/06/07 10:00:41;;;;;;;7.28;2.60;;;22.60;61.50;;;;;;6275262;22;20000;-82
2021/06/07 10:03:23;;;;;;;2.40;1.95;;;22.60;61.60;;;;;;6275202;22;20083;-83
2021/06/07 10:06:15;;;;;;;2.17;1.45;;;22.70;61.10;;;;;;6274368;22;20004;-82
2021/06/07 10:08:42;;;;;;;2.08;1.88;;;22.70;60.60;;;;;;6274939;22;20006;-82
2021/06/07 10:11:21;;;;;;;3.58;2.35;;;22.80;60.60;;;;;;6274625;22;20007;-83
2021/06/07 10:13:48;;;;;;;5.13;2.53;;;22.90;60.40;;;;;;6274189;22;20012;-83
2021/06/07 10:16:14;;;;;;;2.25;1.50;;;23.00;60.60;;;;;;6276356;22;20007;-83
2021/06/07 10:18:41;;;;;;;3.42;1.70;;;23.10;60.10;;;;;;6274394;22;20012;-84
2021/06/07 10:21:10;;;;;;;2.80;1.20;;;23.20;59.90;;;;;;6274506;22;20007;-84
2021/06/07 10:23:36;;;;;;;3.25;2.00;;;23.30;59.50;;;;;;6273872;22;20008;-84
2021/06/07 10:26:05;;;;;;;3.38;2.05;;;23.50;59.20;;;;;;6274861;22;20034;-84
2021/06/07 10:28:32;;;;;;;5.25;2.38;;;23.60;58.80;;;;;;6272865;22;20098;-84
2021/06/07 10:31:14;;;;;;;3.03;1.70;;;23.60;58.70;;;;;;6273379;22;20039;-84
2021/06/07 10:33:41;;;;;;;4.27;1.77;;;23.60;58.40;;;;;;6275671;22;20053;-84
2021/06/07 10:36:22;;;;;;;1.70;1.60;;;23.50;58.60;;;;;;6276162;22;20000;-84
2021/06/07 10:38:50;;;;;;;2.80;2.55;;;23.60;58.80;;;;;;6276242;22;19999;-84
2021/06/07 10:41:18;;;;;;;3.45;1.92;;;23.60;58.80;;;;;;6276026;22;19996;-84
2021/06/07 10:43:46;;;;;;;2.22;2.03;;;23.60;58.80;;;;;;6274211;22;20014;-84
2021/06/07 10:46:31;;;;;;;2.63;2.17;;;23.70;59.40;;;;;;6275665;22;19996;-84
2021/06/07 10:48:58;;;;;;;3.78;1.88;;;24.00;58.60;;;;;;6273848;22;20383;-84
2021/06/07 10:51:27;;;;;;;3.45;2.05;;;24.20;59.00;;;;;;6274183;22;20502;-84
2021/06/07 10:54:17;;;;;;;2.60;1.95;;;24.40;58.60;;;;;;6273982;22;20007;-83
2021/06/07 10:56:43;;;;;;;3.95;2.60;;;24.50;57.80;;;;;;6258057;22;20007;-84
2021/06/07 10:59:14;;;;;;;4.20;1.88;;;24.50;57.30;;;;;;6273918;22;20342;-84
2021/06/07 11:01:53;;;;;;;6.50;1.50;;;24.60;57.40;;;;;;6273559;22;20461;-84
2021/06/07 11:04:36;;;;;;;1.23;1.13;;;24.70;57.10;;;;;;6274277;22;20004;-84
2021/06/07 11:07:27;;;;;;;;;;;24.80;56.90;;;;;;6275670;22;19996;-84
2021/06/07 11:10:32;;;;;;;3.38;1.10;;;24.90;57.10;;;;;;6271371;22;20301;-84
2021/06/07 11:13:06;;;;;;;2.33;1.35;;;25.00;56.40;;;;;;6273709;22;20004;-83
2021/06/07 11:15:40;;;;;;;1.38;0.77;;;25.00;56.00;;;;;;6273801;22;20003;-84
2021/06/07 11:18:18;;;;;;;3.85;1.23;;;24.90;55.40;;;;;;6273717;22;20007;-84
2021/06/07 11:20:44;;;;;;;3.08;1.23;;;24.90;55.70;;;;;;6274335;22;20015;-84
2021/06/07 11:23:29;;;;;;;2.17;1.08;;;24.80;55.50;;;;;;6273943;22;20004;-84
2021/06/07 11:25:56;;;;;;;1.83;1.10;;;24.80;55.30;;;;;;6274448;22;20010;-84
2021/06/07 11:29:04;;;;;;;3.83;1.60;;;24.60;55.60;;;;;;6274596;22;20006;-84
2021/06/07 11:31:33;;;;;;;3.05;1.13;;;24.70;56.30;;;;;;6260160;22;20400;-83
2021/06/07 11:34:01;;;;;;;1.10;1.00;;;24.90;56.40;;;;;;6275251;22;20008;-84
2021/06/07 11:36:38;;;;;;;1.95;1.17;;;25.10;55.60;;;;;;6276850;22;20003;-83
2021/06/07 11:39:14;;;;;;;3.78;0.98;;;25.00;54.50;;;;;;6275358;22;20003;-84
2021/06/07 11:41:59;;;;;;;2.33;0.60;;;24.90;54.50;;;;;;6275208;22;20011;-84
2021/06/07 11:44:57;;;;;;;0.70;0.47;;;24.80;54.20;;;;;;6274159;22;20008;-83
2021/06/07 11:47:49;;;;;;;1.48;0.65;;;24.80;54.10;;;;;;6273039;22;20480;-84
2021/06/07 11:50:15;;;;;;;;;;;24.80;53.90;;;;;;6273902;22;20023;-84
2021/06/07 11:52:53;;;;;;;1.58;0.50;;;24.70;54.40;;;;;;6273526;22;19910;-84
2021/06/07 11:55:28;;;;;;;1.23;0.68;;;24.60;54.10;;;;;;6273528;22;20004;-84
2021/06/07 11:58:08;;;;;;;0.40;0.40;;;24.60;53.70;;;;;;6273553;22;19995;-84
2021/06/07 12:00:52;;;;;;;0.70;0.50;;;24.60;53.50;;;;;;6273696;22;20342;-83
2021/06/07 12:03:26;;;;;;;2.33;0.50;;;24.50;53.90;;;;;;6273146;22;20003;-82
2021/06/07 12:05:52;;;;;;;2.50;0.60;;;24.40;53.80;;;;;;6273827;22;20008;-83
2021/06/07 12:08:21;;;;;;;1.00;0.50;;;24.40;53.80;;;;;;6273211;22;20045;-84
2021/06/07 12:11:02;;;;;;;1.17;0.50;;;24.30;53.40;;;;;;6273219;22;20032;-84
2021/06/07 12:13:42;;;;;;;1.65;0.70;;;24.30;53.40;;;;;;6273401;22;20079;-84
2021/06/07 12:16:12;;;;;;;0.70;0.40;;;24.30;53.90;;;;;;6273241;22;20045;-84
2021/06/07 12:18:53;;;;;;;0.80;0.50;;;24.40;53.90;;;;;;6274932;22;20006;-83
2021/06/07 12:21:22;;;;;;;0.65;0.60;;;24.40;53.40;;;;;;6275355;22;20334;-84
2021/06/07 12:24:04;;;;;;;0.57;0.30;;;24.40;53.50;;;;;;6273802;22;20027;-83
2021/06/07 12:29:32;;;;;;;0.38;0.30;;;24.50;52.60;;;;;;6275171;22;20026;-83
2021/06/07 12:32:23;;;;;;;1.30;0.40;;;24.50;51.90;;;;;;6273993;22;20038;-84
2021/06/07 12:35:19;;;;;;;0.30;0.30;;;24.50;52.00;;;;;;6275224;22;20004;-84
2021/06/07 12:37:48;;;;;;;0.70;0.40;;;24.50;52.30;;;;;;6275745;22;20319;-83
2021/06/07 12:40:23;;;;;;;4.88;0.30;;;24.40;52.10;;;;;;6274986;22;20079;-84
2021/06/07 12:42:55;;;;;;;1.38;0.40;;;24.40;51.70;;;;;;6276669;22;20006;-84
2021/06/07 12:45:32;;;;;;;0.50;0.50;;;24.40;52.00;;;;;;6274977;22;20362;-83
2021/06/07 12:48:13;;;;;;;2.17;0.50;;;24.40;52.80;;;;;;6274266;22;20437;-84
2021/06/07 12:50:40;;;;;;;0.60;0.52;;;24.40;53.00;;;;;;6272852;22;20004;-84
2021/06/07 12:53:07;;;;;;;2.80;0.40;;;24.40;53.40;;;;;;6273195;22;20027;-84
2021/06/07 12:55:36;;;;;;;1.15;0.55;;;24.40;53.60;;;;;;6273511;22;20007;-84
2021/06/07 12:58:08;;;;;;;1.92;0.68;;;24.50;53.60;;;;;;6271387;22;20038;-84
2021/06/07 13:00:40;;;;;;;0.88;0.47;;;24.60;53.20;;;;;;6271694;22;20026;-84
2021/06/07 13:03:20;;;;;;;1.07;0.93;;;24.80;53.00;;;;;;6272653;22;20015;-84
2021/06/07 13:05:47;;;;;;;0.82;0.55;;;24.90;53.20;;;;;;6274351;22;20014;-84
2021/06/07 13:08:19;;;;;;;2.35;0.60;;;25.10;52.60;;;;;;6276374;22;19996;-84